Wetterdaten: Woche 27.06.16 - 03.07.16 (KW26)
Datum Zeit Temp. A. Feuchte A. Luftdruck Regen Wind Richtung Sonnenschein ET UV Solar Taupunkt Windchill Windben Empfang
27.06.2016 00:00 14,1 C 95 % 1017,2 hPa 0,8 l/m 11,1 km/h (2 Bft) SW 0,00 h 0,000 mm 0,0 UV-I 0 W/m 13,3 C 11,7 C 17,5 km/h (3 Bft) 98,27 %
27.06.2016 01:00 13,9 C 95 % 1017,1 hPa 0,0 l/m 11,2 km/h (2 Bft) W-SW 0,00 h 0,000 mm 0,0 UV-I 0 W/m 13,1 C 11,4 C 18,0 km/h (3 Bft) 99,51 %
27.06.2016 02:00 13,9 C 95 % 1017,0 hPa 0,2 l/m 11,5 km/h (2 Bft) SW 0,00 h 0,000 mm 0,0 UV-I 0 W/m 13,1 C 11,3 C 17,6 km/h (3 Bft) 97,47 %
27.06.2016 03:00 13,8 C 96 % 1017,1 hPa 0,6 l/m 10,2 km/h (2 Bft) W-SW 0,00 h 0,000 mm 0,0 UV-I 0 W/m 13,1 C 11,8 C 16,0 km/h (3 Bft) 99,22 %
27.06.2016 04:00 13,7 C 96 % 1017,3 hPa 1,0 l/m 9,5 km/h (2 Bft) W-SW 0,00 h 0,000 mm 0,0 UV-I 0 W/m 13,1 C 12,0 C 14,7 km/h (3 Bft) 97,18 %
27.06.2016 05:00 13,5 C 96 % 1018,4 hPa 8,8 l/m 11,2 km/h (2 Bft) W-SW 0,00 h 0,000 mm 0,0 UV-I 5 W/m 12,8 C 10,9 C 18,8 km/h (3 Bft) 99,43 %
27.06.2016 06:00 13,2 C 96 % 1019,0 hPa 4,6 l/m 9,2 km/h (2 Bft) W-SW 0,00 h 0,000 mm 0,0 UV-I 9 W/m 12,6 C 11,6 C 15,5 km/h (3 Bft) 98,18 %
27.06.2016 07:00 13,3 C 96 % 1019,3 hPa 1,8 l/m 8,1 km/h (2 Bft) W-SW 0,00 h 0,000 mm 0,0 UV-I 39 W/m 12,8 C 12,3 C 13,6 km/h (3 Bft) 99,38 %
27.06.2016 08:00 13,7 C 97 % 1019,6 hPa 0,6 l/m 8,3 km/h (2 Bft) SW 0,00 h 0,025 mm 0,6 UV-I 86 W/m 13,2 C 12,6 C 14,3 km/h (3 Bft) 97,94 %
27.06.2016 09:00 14,1 C 96 % 1019,8 hPa 0,0 l/m 6,5 km/h (2 Bft) W-SW 0,00 h 0,051 mm 0,8 UV-I 136 W/m 13,5 C 13,7 C 10,6 km/h (2 Bft) 98,57 %
27.06.2016 10:00 15,4 C 92 % 1019,8 hPa 0,0 l/m 6,4 km/h (2 Bft) W-SW 0,10 h 0,076 mm 2,2 UV-I 320 W/m 14,1 C 15,0 C 11,2 km/h (2 Bft) 97,46 %
27.06.2016 11:00 15,8 C 89 % 1019,9 hPa 0,0 l/m 2,2 km/h (1 Bft) W 0,00 h 0,178 mm 1,4 UV-I 182 W/m 14,1 C 15,8 C 5,1 km/h (1 Bft) 99,21 %
27.06.2016 12:00 16,4 C 86 % 1019,9 hPa 0,0 l/m 1,6 km/h (1 Bft) NW 0,00 h 0,102 mm 2,3 UV-I 284 W/m 14,1 C 16,4 C 4,2 km/h (1 Bft) 97,64 %
27.06.2016 13:00 18,0 C 80 % 1019,2 hPa 0,0 l/m 2,4 km/h (1 Bft) O-SO 0,73 h 0,152 mm 4,9 UV-I 603 W/m 14,5 C 18,0 C 5,2 km/h (1 Bft) 98,93 %
27.06.2016 14:00 19,3 C 73 % 1018,5 hPa 0,0 l/m 4,8 km/h (1 Bft) S 0,33 h 0,356 mm 3,9 UV-I 474 W/m 14,4 C 19,1 C 9,2 km/h (2 Bft) 97,75 %
27.06.2016 15:00 18,5 C 76 % 1018,3 hPa 0,0 l/m 6,8 km/h (2 Bft) S-SW 0,07 h 0,305 mm 1,8 UV-I 236 W/m 14,2 C 18,1 C 11,7 km/h (2 Bft) 99,29 %
27.06.2016 16:00 19,6 C 71 % 1018,0 hPa 0,0 l/m 8,6 km/h (2 Bft) SW 0,77 h 0,177 mm 2,7 UV-I 578 W/m 14,2 C 18,7 C 14,1 km/h (3 Bft) 97,34 %
27.06.2016 17:00 20,2 C 66 % 1018,0 hPa 0,0 l/m 10,0 km/h (2 Bft) W-SW 0,37 h 0,356 mm 1,4 UV-I 278 W/m 13,5 C 18,9 C 17,1 km/h (3 Bft) 98,75 %
27.06.2016 18:00 18,1 C 70 % 1018,0 hPa 0,0 l/m 10,3 km/h (2 Bft) SW 0,23 h 0,203 mm 0,4 UV-I 165 W/m 12,5 C 16,5 C 16,3 km/h (3 Bft) 97,34 %
27.06.2016 19:00 18,9 C 69 % 1017,9 hPa 0,0 l/m 7,9 km/h (2 Bft) SW 1,00 h 0,127 mm 0,4 UV-I 189 W/m 13,0 C 18,1 C 12,9 km/h (3 Bft) 98,95 %
27.06.2016 20:00 18,3 C 73 % 1017,7 hPa 0,0 l/m 5,9 km/h (2 Bft) S-SW 0,57 h 0,153 mm 0,0 UV-I 47 W/m 13,4 C 18,1 C 9,4 km/h (2 Bft) 97,68 %
27.06.2016 21:00 16,8 C 78 % 1018,1 hPa 0,0 l/m 4,1 km/h (1 Bft) S-SW 0,00 h 0,050 mm 0,0 UV-I 10 W/m 13,0 C 16,8 C 6,5 km/h (2 Bft) 99,44 %
27.06.2016 22:00 15,7 C 82 % 1018,4 hPa 0,0 l/m 5,3 km/h (1 Bft) S-SW 0,00 h 0,026 mm 0,0 UV-I 0 W/m 12,6 C 15,6 C 7,8 km/h (2 Bft) 97,61 %
27.06.2016 23:00 15,0 C 85 % 1018,5 hPa 0,0 l/m 6,3 km/h (2 Bft) S-SW 0,00 h 0,025 mm 0,0 UV-I 0 W/m 12,4 C 14,8 C 9,1 km/h (2 Bft) 99,45 %
28.06.2016 00:00 15,2 C 86 % 1018,8 hPa 0,0 l/m 8,1 km/h (2 Bft) SW 0,00 h 0,000 mm 0,0 UV-I 0 W/m 12,8 C 14,2 C 12,7 km/h (3 Bft) 97,41 %
28.06.2016 01:00 15,2 C 86 % 1018,9 hPa 0,0 l/m 7,6 km/h (2 Bft) SW 0,00 h 0,025 mm 0,0 UV-I 0 W/m 12,9 C 14,5 C 11,5 km/h (2 Bft) 99,23 %
28.06.2016 02:00 15,0 C 87 % 1018,9 hPa 0,0 l/m 5,5 km/h (1 Bft) SW 0,00 h 0,026 mm 0,0 UV-I 0 W/m 13,0 C 15,0 C 8,0 km/h (2 Bft) 97,68 %
28.06.2016 03:00 15,0 C 87 % 1018,7 hPa 0,0 l/m 5,8 km/h (2 Bft) SW 0,00 h 0,000 mm 0,0 UV-I 0 W/m 12,8 C 15,0 C 9,3 km/h (2 Bft) 99,08 %
28.06.2016 04:00 14,8 C 88 % 1018,5 hPa 0,0 l/m 6,7 km/h (2 Bft) SW 0,00 h 0,025 mm 0,0 UV-I 0 W/m 12,8 C 14,5 C 10,5 km/h (2 Bft) 97,54 %
28.06.2016 05:00 14,8 C 88 % 1018,5 hPa 0,0 l/m 8,3 km/h (2 Bft) SW 0,03 h 0,026 mm 0,0 UV-I 17 W/m 12,8 C 13,8 C 12,3 km/h (3 Bft) 99,30 %
28.06.2016 06:00 15,3 C 87 % 1018,5 hPa 0,0 l/m 6,9 km/h (2 Bft) SW 0,00 h 0,025 mm 0,0 UV-I 63 W/m 13,1 C 14,9 C 10,8 km/h (2 Bft) 97,61 %
28.06.2016 07:00 16,5 C 83 % 1018,5 hPa 0,0 l/m 6,9 km/h (2 Bft) W-SW 0,20 h 0,051 mm 0,7 UV-I 185 W/m 13,6 C 16,2 C 11,6 km/h (2 Bft) 99,15 %
28.06.2016 08:00 18,7 C 74 % 1018,4 hPa 0,0 l/m 7,3 km/h (2 Bft) W-SW 0,77 h 0,127 mm 1,5 UV-I 390 W/m 14,0 C 18,2 C 11,9 km/h (2 Bft) 97,70 %
28.06.2016 09:00 19,9 C 67 % 1018,3 hPa 0,0 l/m 6,2 km/h (2 Bft) W-SW 0,73 h 0,254 mm 2,9 UV-I 506 W/m 13,6 C 19,5 C 11,3 km/h (2 Bft) 99,29 %
28.06.2016 10:00 21,0 C 63 % 1018,3 hPa 0,0 l/m 6,6 km/h (2 Bft) W-SW 0,33 h 0,330 mm 3,2 UV-I 468 W/m 13,8 C 20,7 C 11,7 km/h (2 Bft) 97,07 %
28.06.2016 11:00 21,6 C 62 % 1018,1 hPa 0,0 l/m 5,8 km/h (2 Bft) W-SW 0,77 h 0,305 mm 5,6 UV-I 731 W/m 13,8 C 21,3 C 10,8 km/h (2 Bft) 98,50 %
28.06.2016 12:00 22,8 C 58 % 1017,7 hPa 0,0 l/m 6,2 km/h (2 Bft) W 0,83 h 0,482 mm 6,6 UV-I 811 W/m 14,2 C 22,5 C 11,4 km/h (2 Bft) 98,59 %
28.06.2016 13:00 23,0 C 58 % 1017,2 hPa 0,0 l/m 5,3 km/h (1 Bft) W 0,97 h 0,508 mm 6,9 UV-I 916 W/m 14,2 C 22,8 C 10,5 km/h (2 Bft) 98,87 %
28.06.2016 14:00 23,3 C 55 % 1016,5 hPa 0,0 l/m 8,3 km/h (2 Bft) W-SW 0,67 h 0,534 mm 5,9 UV-I 718 W/m 13,8 C 22,6 C 14,4 km/h (3 Bft) 97,73 %
28.06.2016 15:00 23,8 C 52 % 1015,9 hPa 0,0 l/m 9,9 km/h (2 Bft) SW 0,83 h 0,508 mm 4,7 UV-I 679 W/m 13,5 C 22,9 C 17,5 km/h (3 Bft) 98,90 %
28.06.2016 16:00 24,2 C 50 % 1015,3 hPa 0,0 l/m 8,0 km/h (2 Bft) W 0,93 h 0,482 mm 3,5 UV-I 602 W/m 13,1 C 23,7 C 14,5 km/h (3 Bft) 97,84 %
28.06.2016 17:00 24,5 C 47 % 1015,2 hPa 0,0 l/m 6,0 km/h (2 Bft) W-SW 1,00 h 0,432 mm 2,0 UV-I 501 W/m 12,4 C 24,3 C 10,9 km/h (2 Bft) 98,31 %
28.06.2016 18:00 24,3 C 47 % 1014,7 hPa 0,0 l/m 2,6 km/h (1 Bft) W-SW 1,00 h 0,356 mm 0,9 UV-I 330 W/m 12,4 C 24,3 C 5,6 km/h (1 Bft) 98,18 %
28.06.2016 19:00 24,0 C 46 % 1014,2 hPa 0,0 l/m 2,6 km/h (1 Bft) S 0,97 h 0,228 mm 0,5 UV-I 160 W/m 11,7 C 24,0 C 4,9 km/h (1 Bft) 98,57 %
28.06.2016 20:00 21,5 C 64 % 1014,0 hPa 0,0 l/m 1,0 km/h (0 Bft) S 0,03 h 0,127 mm 0,0 UV-I 31 W/m 14,4 C 21,5 C 2,2 km/h (1 Bft) 98,60 %
28.06.2016 21:00 18,3 C 75 % 1014,1 hPa 0,0 l/m 0,5 km/h (0 Bft) S 0,00 h 0,026 mm 0,0 UV-I 5 W/m 13,7 C 18,3 C 1,2 km/h (1 Bft) 98,50 %
28.06.2016 22:00 17,0 C 80 % 1014,2 hPa 0,0 l/m 0,9 km/h (0 Bft) S-SO 0,00 h 0,000 mm 0,0 UV-I 0 W/m 13,4 C 17,0 C 2,3 km/h (1 Bft) 98,07 %
28.06.2016 23:00 15,9 C 83 % 1014,2 hPa 0,0 l/m 1,6 km/h (1 Bft) S-SO 0,00 h 0,000 mm 0,0 UV-I 0 W/m 13,0 C 15,9 C 3,3 km/h (1 Bft) 98,03 %
29.06.2016 00:00 14,9 C 87 % 1014,1 hPa 0,0 l/m 1,0 km/h (0 Bft) S-SO 0,00 h 0,000 mm 0,0 UV-I 0 W/m 12,7 C 14,9 C 2,0 km/h (1 Bft) 98,74 %
29.06.2016 01:00 14,3 C 88 % 1013,8 hPa 0,0 l/m 1,0 km/h (0 Bft) S-SO 0,00 h 0,000 mm 0,0 UV-I 0 W/m 12,3 C 14,3 C 2,8 km/h (1 Bft) 97,68 %
29.06.2016 02:00 13,5 C 90 % 1013,5 hPa 0,0 l/m 0,7 km/h (0 Bft) S-SO 0,00 h 0,000 mm 0,0 UV-I 0 W/m 11,9 C 13,5 C 1,4 km/h (1 Bft) 98,15 %
29.06.2016 03:00 12,9 C 92 % 1013,4 hPa 0,0 l/m 0,6 km/h (0 Bft) S-SO 0,00 h 0,000 mm 0,0 UV-I 0 W/m 11,6 C 12,9 C 1,7 km/h (1 Bft) 98,85 %
29.06.2016 04:00 12,4 C 93 % 1013,4 hPa 0,0 l/m 0,9 km/h (0 Bft) S-SO 0,00 h 0,000 mm 0,0 UV-I 0 W/m 11,3 C 12,4 C 2,0 km/h (1 Bft) 97,74 %
29.06.2016 05:00 12,5 C 93 % 1013,6 hPa 0,0 l/m 1,6 km/h (1 Bft) S-SO 0,03 h 0,000 mm 0,0 UV-I 17 W/m 11,5 C 12,5 C 3,6 km/h (1 Bft) 97,59 %
29.06.2016 06:00 14,0 C 91 % 1013,6 hPa 0,0 l/m 0,3 km/h (0 Bft) S-SO 0,13 h 0,000 mm 0,0 UV-I 66 W/m 12,6 C 14,0 C 0,6 km/h (0 Bft) 97,53 %
29.06.2016 07:00 16,5 C 85 % 1013,8 hPa 0,0 l/m 0,9 km/h (0 Bft) S-SW 0,90 h 0,051 mm 0,8 UV-I 265 W/m 13,9 C 16,5 C 2,7 km/h (1 Bft) 99,15 %
29.06.2016 08:00 18,5 C 77 % 1014,3 hPa 0,0 l/m 2,1 km/h (1 Bft) W-NW 0,93 h 0,152 mm 1,7 UV-I 422 W/m 14,4 C 18,5 C 4,7 km/h (1 Bft) 97,63 %
29.06.2016 09:00 20,6 C 70 % 1014,6 hPa 0,0 l/m 5,4 km/h (1 Bft) W-SW 0,97 h 0,229 mm 3,1 UV-I 524 W/m 14,9 C 20,5 C 9,4 km/h (2 Bft) 99,15 %
29.06.2016 10:00 22,6 C 63 % 1014,5 hPa 0,0 l/m 7,8 km/h (2 Bft) W-SW 0,57 h 0,330 mm 4,2 UV-I 570 W/m 15,1 C 22,1 C 13,9 km/h (3 Bft) 98,10 %
29.06.2016 11:00 24,0 C 61 % 1014,1 hPa 0,0 l/m 6,8 km/h (2 Bft) W-SW 1,00 h 0,406 mm 6,3 UV-I 803 W/m 15,9 C 23,6 C 14,1 km/h (3 Bft) 99,00 %
29.06.2016 12:00 25,0 C 57 % 1014,1 hPa 0,0 l/m 7,7 km/h (2 Bft) W 0,87 h 0,534 mm 6,6 UV-I 791 W/m 16,0 C 24,6 C 13,7 km/h (3 Bft) 97,81 %
29.06.2016 13:00 25,8 C 55 % 1013,9 hPa 0,0 l/m 6,3 km/h (2 Bft) W 0,90 h 0,533 mm 7,1 UV-I 857 W/m 16,1 C 25,5 C 12,1 km/h (2 Bft) 98,57 %
29.06.2016 14:00 26,1 C 55 % 1013,6 hPa 0,0 l/m 3,8 km/h (1 Bft) W-SW 0,73 h 0,584 mm 5,1 UV-I 587 W/m 16,2 C 26,0 C 8,4 km/h (2 Bft) 98,44 %
29.06.2016 15:00 25,6 C 58 % 1013,2 hPa 0,0 l/m 3,9 km/h (1 Bft) N-NO 0,67 h 0,458 mm 4,1 UV-I 629 W/m 16,7 C 25,6 C 9,2 km/h (2 Bft) 98,29 %
29.06.2016 16:00 26,0 C 57 % 1012,8 hPa 0,0 l/m 3,6 km/h (1 Bft) N 0,93 h 0,381 mm 3,3 UV-I 617 W/m 16,8 C 26,0 C 7,9 km/h (2 Bft) 98,45 %
29.06.2016 17:00 25,8 C 57 % 1012,3 hPa 0,0 l/m 3,7 km/h (1 Bft) N-NO 0,90 h 0,406 mm 1,9 UV-I 470 W/m 16,6 C 25,7 C 7,3 km/h (2 Bft) 97,70 %
29.06.2016 18:00 25,5 C 56 % 1011,8 hPa 0,0 l/m 2,1 km/h (1 Bft) N-NW 1,00 h 0,330 mm 0,9 UV-I 316 W/m 16,2 C 25,5 C 4,9 km/h (1 Bft) 98,94 %
29.06.2016 19:00 24,0 C 64 % 1011,9 hPa 0,0 l/m 1,7 km/h (1 Bft) N-NO 0,30 h 0,229 mm 0,4 UV-I 87 W/m 16,7 C 24,0 C 4,1 km/h (1 Bft) 97,87 %
29.06.2016 20:00 22,9 C 68 % 1011,9 hPa 0,0 l/m 0,5 km/h (0 Bft) N-NO 0,00 h 0,076 mm 0,0 UV-I 30 W/m 16,7 C 22,9 C 1,2 km/h (1 Bft) 98,82 %
29.06.2016 21:00 20,6 C 77 % 1012,1 hPa 0,0 l/m 0,3 km/h (0 Bft) N-NO 0,00 h 0,025 mm 0,0 UV-I 4 W/m 16,4 C 20,6 C 1,2 km/h (1 Bft) 97,24 %
29.06.2016 22:00 19,6 C 80 % 1012,0 hPa 0,0 l/m 1,7 km/h (1 Bft) O 0,00 h 0,000 mm 0,0 UV-I 0 W/m 15,9 C 19,6 C 2,8 km/h (1 Bft) 99,09 %
29.06.2016 23:00 19,5 C 81 % 1012,3 hPa 0,0 l/m 1,6 km/h (1 Bft) O 0,00 h 0,000 mm 0,0 UV-I 0 W/m 16,2 C 19,5 C 3,1 km/h (1 Bft) 97,43 %
30.06.2016 00:00 20,2 C 79 % 1012,5 hPa 0,0 l/m 0,6 km/h (0 Bft) N 0,00 h 0,000 mm 0,0 UV-I 0 W/m 16,4 C 20,2 C 2,1 km/h (1 Bft) 99,28 %
30.06.2016 01:00 18,6 C 85 % 1012,2 hPa 0,0 l/m 2,8 km/h (1 Bft) SW 0,00 h 0,000 mm 0,0 UV-I 0 W/m 16,1 C 18,6 C 4,4 km/h (1 Bft) 97,67 %
30.06.2016 02:00 17,9 C 87 % 1012,6 hPa 0,0 l/m 1,5 km/h (1 Bft) SW 0,00 h 0,000 mm 0,0 UV-I 0 W/m 15,8 C 17,9 C 2,9 km/h (1 Bft) 99,30 %
30.06.2016 03:00 17,9 C 86 % 1012,3 hPa 0,0 l/m 3,7 km/h (1 Bft) O 0,00 h 0,000 mm 0,0 UV-I 0 W/m 15,5 C 17,9 C 5,8 km/h (2 Bft) 97,86 %
30.06.2016 04:00 17,7 C 90 % 1012,4 hPa 0,0 l/m 4,6 km/h (1 Bft) SW 0,00 h 0,000 mm 0,0 UV-I 0 W/m 16,0 C 17,5 C 7,3 km/h (2 Bft) 99,08 %
30.06.2016 05:00 17,6 C 91 % 1011,8 hPa 0,0 l/m 5,8 km/h (2 Bft) O-NO 0,00 h 0,000 mm 0,0 UV-I 12 W/m 16,1 C 16,9 C 8,5 km/h (2 Bft) 97,53 %
30.06.2016 06:00 18,0 C 91 % 1011,5 hPa 0,0 l/m 3,7 km/h (1 Bft) O-NO 0,00 h 0,025 mm 0,0 UV-I 54 W/m 16,4 C 17,8 C 6,7 km/h (2 Bft) 98,90 %
30.06.2016 07:00 18,8 C 88 % 1012,0 hPa 0,0 l/m 1,3 km/h (1 Bft) N-NO 0,27 h 0,026 mm 0,6 UV-I 155 W/m 16,8 C 18,8 C 3,6 km/h (1 Bft) 97,67 %
30.06.2016 08:00 20,1 C 84 % 1012,4 hPa 0,0 l/m 1,9 km/h (1 Bft) W 0,47 h 0,101 mm 1,3 UV-I 307 W/m 17,3 C 20,1 C 4,9 km/h (1 Bft) 98,52 %
30.06.2016 09:00 21,5 C 78 % 1013,2 hPa 0,0 l/m 7,8 km/h (2 Bft) W-SW 0,30 h 0,204 mm 2,2 UV-I 370 W/m 17,6 C 20,9 C 14,0 km/h (3 Bft) 97,61 %
30.06.2016 10:00 22,9 C 74 % 1013,6 hPa 0,0 l/m 12,7 km/h (3 Bft) W-SW 0,50 h 0,254 mm 3,2 UV-I 455 W/m 18,1 C 21,2 C 21,0 km/h (4 Bft) 99,04 %
30.06.2016 11:00 23,6 C 68 % 1014,0 hPa 0,0 l/m 13,6 km/h (3 Bft) W 0,60 h 0,330 mm 4,3 UV-I 577 W/m 17,4 C 21,9 C 23,2 km/h (4 Bft) 97,86 %
30.06.2016 12:00 23,2 C 66 % 1014,3 hPa 0,0 l/m 12,6 km/h (3 Bft) W-SW 0,73 h 0,432 mm 4,6 UV-I 572 W/m 16,5 C 21,6 C 21,3 km/h (4 Bft) 99,43 %
30.06.2016 13:00 24,1 C 64 % 1014,2 hPa 0,0 l/m 9,7 km/h (2 Bft) W 0,77 h 0,431 mm 5,5 UV-I 770 W/m 17,0 C 23,2 C 17,8 km/h (3 Bft) 97,81 %
30.06.2016 14:00 24,0 C 63 % 1014,1 hPa 0,0 l/m 9,3 km/h (2 Bft) W-SW 0,43 h 0,508 mm 4,0 UV-I 484 W/m 16,6 C 23,3 C 16,1 km/h (3 Bft) 99,20 %
30.06.2016 15:00 23,6 C 63 % 1014,1 hPa 0,0 l/m 7,6 km/h (2 Bft) W-SW 0,23 h 0,381 mm 2,7 UV-I 373 W/m 16,2 C 23,1 C 13,8 km/h (3 Bft) 97,94 %
30.06.2016 16:00 22,8 C 65 % 1014,1 hPa 0,0 l/m 7,7 km/h (2 Bft) W-SW 0,00 h 0,280 mm 1,0 UV-I 158 W/m 16,0 C 22,4 C 13,3 km/h (3 Bft) 98,58 %
30.06.2016 17:00 20,6 C 80 % 1014,3 hPa 0,2 l/m 7,1 km/h (2 Bft) W-SW 0,00 h 0,127 mm 0,6 UV-I 129 W/m 17,1 C 20,3 C 11,3 km/h (2 Bft) 97,80 %
30.06.2016 18:00 20,4 C 80 % 1013,9 hPa 0,0 l/m 5,5 km/h (1 Bft) S-SO 0,07 h 0,101 mm 0,6 UV-I 191 W/m 16,9 C 20,3 C 10,1 km/h (2 Bft) 98,47 %
30.06.2016 19:00 21,0 C 76 % 1014,1 hPa 0,0 l/m 4,7 km/h (1 Bft) S-SO 0,97 h 0,127 mm 0,0 UV-I 207 W/m 16,5 C 21,0 C 8,4 km/h (2 Bft) 98,33 %
30.06.2016 20:00 20,3 C 79 % 1014,5 hPa 0,0 l/m 3,2 km/h (1 Bft) S-SO 0,93 h 0,127 mm 0,0 UV-I 60 W/m 16,6 C 20,3 C 6,2 km/h (2 Bft) 98,71 %
30.06.2016 21:00 18,8 C 85 % 1014,8 hPa 0,0 l/m 2,9 km/h (1 Bft) S-SO 0,00 h 0,051 mm 0,0 UV-I 9 W/m 16,2 C 18,8 C 6,5 km/h (2 Bft) 98,14 %
30.06.2016 22:00 17,6 C 89 % 1015,0 hPa 0,0 l/m 2,3 km/h (1 Bft) S-SO 0,00 h 0,000 mm 0,0 UV-I 0 W/m 15,8 C 17,6 C 4,7 km/h (1 Bft) 98,34 %
30.06.2016 23:00 17,0 C 90 % 1015,1 hPa 0,0 l/m 1,8 km/h (1 Bft) S 0,00 h 0,000 mm 0,0 UV-I 0 W/m 15,4 C 17,0 C 3,4 km/h (1 Bft) 98,22 %
01.07.2016 00:00 16,6 C 91 % 1015,5 hPa 0,0 l/m 3,6 km/h (1 Bft) S-SW 0,00 h 0,000 mm 0,0 UV-I 0 W/m 15,1 C 16,6 C 5,5 km/h (1 Bft) 98,50 %
01.07.2016 01:00 16,3 C 92 % 1015,6 hPa 0,0 l/m 2,2 km/h (1 Bft) S-SO 0,00 h 0,000 mm 0,0 UV-I 0 W/m 14,9 C 16,3 C 4,8 km/h (1 Bft) 98,21 %
01.07.2016 02:00 15,7 C 93 % 1015,6 hPa 0,0 l/m 1,1 km/h (0 Bft) S-SO 0,00 h 0,000 mm 0,0 UV-I 0 W/m 14,6 C 15,7 C 2,6 km/h (1 Bft) 97,99 %
01.07.2016 03:00 15,7 C 93 % 1015,8 hPa 0,0 l/m 2,4 km/h (1 Bft) S-SO 0,00 h 0,000 mm 0,0 UV-I 0 W/m 14,5 C 15,7 C 4,5 km/h (1 Bft) 98,59 %
01.07.2016 04:00 16,1 C 92 % 1016,0 hPa 0,0 l/m 4,3 km/h (1 Bft) S 0,00 h 0,000 mm 0,0 UV-I 0 W/m 14,8 C 16,1 C 7,5 km/h (2 Bft) 98,29 %
01.07.2016 05:00 16,2 C 91 % 1016,3 hPa 0,0 l/m 3,6 km/h (1 Bft) S 0,00 h 0,000 mm 0,0 UV-I 11 W/m 14,8 C 16,2 C 6,5 km/h (2 Bft) 98,26 %
01.07.2016 06:00 17,0 C 90 % 1016,6 hPa 0,0 l/m 2,7 km/h (1 Bft) S 0,10 h 0,000 mm 0,0 UV-I 81 W/m 15,3 C 17,0 C 5,1 km/h (1 Bft) 98,22 %
01.07.2016 07:00 18,4 C 86 % 1016,9 hPa 0,0 l/m 2,5 km/h (1 Bft) S-SW 0,40 h 0,051 mm 0,6 UV-I 193 W/m 16,1 C 18,4 C 4,3 km/h (1 Bft) 98,08 %
01.07.2016 08:00 20,1 C 80 % 1017,0 hPa 0,0 l/m 3,8 km/h (1 Bft) S-SW 0,63 h 0,101 mm 1,5 UV-I 376 W/m 16,5 C 20,1 C 6,5 km/h (2 Bft) 98,36 %
01.07.2016 09:00 21,7 C 72 % 1017,2 hPa 0,0 l/m 3,6 km/h (1 Bft) W 1,00 h 0,229 mm 2,9 UV-I 510 W/m 16,5 C 21,7 C 7,2 km/h (2 Bft) 98,65 %
01.07.2016 10:00 22,9 C 69 % 1017,1 hPa 0,0 l/m 2,9 km/h (1 Bft) W-NW 0,77 h 0,305 mm 4,1 UV-I 565 W/m 16,9 C 22,9 C 6,4 km/h (2 Bft) 98,06 %
01.07.2016 11:00 24,1 C 66 % 1017,0 hPa 0,0 l/m 3,2 km/h (1 Bft) N-NW 0,90 h 0,381 mm 5,7 UV-I 738 W/m 17,2 C 24,0 C 6,7 km/h (2 Bft) 98,18 %
01.07.2016 12:00 24,9 C 62 % 1016,8 hPa 0,0 l/m 3,3 km/h (1 Bft) W-NW 0,87 h 0,482 mm 6,2 UV-I 771 W/m 17,0 C 24,9 C 6,4 km/h (2 Bft) 98,36 %
01.07.2016 13:00 26,0 C 58 % 1016,1 hPa 0,0 l/m 2,7 km/h (1 Bft) NO 0,92 h 0,483 mm 6,7 UV-I 845 W/m 17,0 C 26,0 C 5,6 km/h (1 Bft) 98,81 %
01.07.2016 14:00 27,0 C 52 % 1015,5 hPa 0,0 l/m 3,3 km/h (1 Bft) N-NO 1,00 h 0,533 mm 6,3 UV-I 885 W/m 16,3 C 27,0 C 6,6 km/h (2 Bft) 97,71 %
01.07.2016 15:00 27,4 C 51 % 1015,0 hPa 0,0 l/m 4,7 km/h (1 Bft) NO 0,93 h 0,585 mm 4,7 UV-I 781 W/m 16,3 C 27,3 C 8,8 km/h (2 Bft) 98,78 %
01.07.2016 16:00 27,6 C 52 % 1014,6 hPa 0,0 l/m 5,7 km/h (1 Bft) NO 0,93 h 0,533 mm 3,2 UV-I 618 W/m 16,7 C 27,5 C 10,1 km/h (2 Bft) 97,83 %
01.07.2016 17:00 27,4 C 53 % 1014,3 hPa 0,0 l/m 3,6 km/h (1 Bft) N-NO 1,00 h 0,457 mm 1,9 UV-I 496 W/m 16,9 C 27,4 C 7,6 km/h (2 Bft) 99,00 %
01.07.2016 18:00 26,9 C 56 % 1014,0 hPa 0,0 l/m 5,2 km/h (1 Bft) N-NO 1,00 h 0,356 mm 0,9 UV-I 316 W/m 17,3 C 26,8 C 9,5 km/h (2 Bft) 97,57 %
01.07.2016 19:00 25,7 C 60 % 1014,0 hPa 0,0 l/m 4,7 km/h (1 Bft) N-NO 0,93 h 0,254 mm 0,4 UV-I 152 W/m 17,3 C 25,7 C 8,5 km/h (2 Bft) 98,89 %
01.07.2016 20:00 24,7 C 63 % 1014,0 hPa 0,0 l/m 2,4 km/h (1 Bft) NO 0,03 h 0,127 mm 0,0 UV-I 30 W/m 17,2 C 24,7 C 3,9 km/h (1 Bft) 98,28 %
01.07.2016 21:00 22,8 C 69 % 1014,1 hPa 0,0 l/m 0,7 km/h (0 Bft) O-NO 0,00 h 0,051 mm 0,0 UV-I 5 W/m 16,9 C 22,8 C 1,6 km/h (1 Bft) 98,25 %
01.07.2016 22:00 22,2 C 71 % 1014,3 hPa 0,0 l/m 3,8 km/h (1 Bft) O 0,00 h 0,000 mm 0,0 UV-I 0 W/m 16,5 C 22,2 C 6,2 km/h (2 Bft) 98,57 %
01.07.2016 23:00 21,2 C 73 % 1014,0 hPa 0,0 l/m 3,7 km/h (1 Bft) O 0,00 h 0,025 mm 0,0 UV-I 0 W/m 16,2 C 21,2 C 6,1 km/h (2 Bft) 98,53 %
02.07.2016 00:00 19,4 C 82 % 1013,8 hPa 0,0 l/m 1,6 km/h (1 Bft) O-NO 0,00 h 0,000 mm 0,0 UV-I 0 W/m 16,2 C 19,4 C 2,4 km/h (1 Bft) 98,21 %
02.07.2016 01:00 18,3 C 86 % 1013,4 hPa 0,0 l/m 0,9 km/h (0 Bft) O 0,00 h 0,000 mm 0,0 UV-I 0 W/m 15,9 C 18,3 C 1,8 km/h (1 Bft) 98,23 %
02.07.2016 02:00 17,5 C 89 % 1012,9 hPa 0,0 l/m 1,5 km/h (1 Bft) S-SO 0,00 h 0,000 mm 0,0 UV-I 0 W/m 15,6 C 17,5 C 2,8 km/h (1 Bft) 98,20 %
02.07.2016 03:00 17,5 C 90 % 1012,8 hPa 0,0 l/m 2,7 km/h (1 Bft) S-SO 0,00 h 0,000 mm 0,0 UV-I 0 W/m 15,8 C 17,5 C 4,7 km/h (1 Bft) 99,02 %
02.07.2016 04:00 17,5 C 91 % 1012,9 hPa 0,0 l/m 3,9 km/h (1 Bft) S-SW 0,00 h 0,000 mm 0,0 UV-I 0 W/m 16,0 C 17,5 C 6,1 km/h (2 Bft) 98,13 %
02.07.2016 05:00 17,3 C 92 % 1012,9 hPa 0,0 l/m 2,2 km/h (1 Bft) S 0,10 h 0,000 mm 0,0 UV-I 23 W/m 15,9 C 17,3 C 4,0 km/h (1 Bft) 99,01 %
02.07.2016 06:00 19,3 C 86 % 1012,8 hPa 0,0 l/m 3,6 km/h (1 Bft) S-SO 0,17 h 0,025 mm 0,0 UV-I 95 W/m 16,9 C 19,3 C 7,3 km/h (2 Bft) 97,80 %
02.07.2016 07:00 21,0 C 80 % 1012,6 hPa 0,0 l/m 2,6 km/h (1 Bft) S 0,33 h 0,077 mm 0,6 UV-I 200 W/m 17,5 C 21,0 C 5,0 km/h (1 Bft) 98,45 %
02.07.2016 08:00 22,1 C 77 % 1012,4 hPa 0,0 l/m 2,1 km/h (1 Bft) W-SW 0,27 h 0,127 mm 1,0 UV-I 230 W/m 17,9 C 22,1 C 4,1 km/h (1 Bft) 98,08 %
02.07.2016 09:00 22,7 C 79 % 1012,1 hPa 0,0 l/m 2,0 km/h (1 Bft) N 0,53 h 0,152 mm 2,3 UV-I 405 W/m 18,8 C 22,7 C 4,8 km/h (1 Bft) 98,56 %
02.07.2016 10:00 24,5 C 73 % 1011,9 hPa 0,0 l/m 2,8 km/h (1 Bft) N 1,00 h 0,254 mm 4,5 UV-I 717 W/m 19,2 C 24,5 C 6,3 km/h (2 Bft) 98,71 %
02.07.2016 11:00 26,0 C 68 % 1011,6 hPa 0,0 l/m 2,5 km/h (1 Bft) N-NW 0,97 h 0,457 mm 5,2 UV-I 726 W/m 19,6 C 26,0 C 5,7 km/h (1 Bft) 97,74 %
02.07.2016 12:00 26,1 C 67 % 1011,4 hPa 0,0 l/m 3,8 km/h (1 Bft) NW 0,50 h 0,457 mm 5,5 UV-I 658 W/m 19,5 C 26,1 C 8,3 km/h (2 Bft) 98,91 %
02.07.2016 13:00 27,0 C 59 % 1011,1 hPa 0,0 l/m 5,9 km/h (2 Bft) W-SW 1,00 h 0,458 mm 6,7 UV-I 900 W/m 18,3 C 26,8 C 13,0 km/h (3 Bft) 97,81 %
02.07.2016 14:00 27,0 C 58 % 1010,6 hPa 0,0 l/m 5,7 km/h (1 Bft) W-NW 1,00 h 0,609 mm 6,1 UV-I 833 W/m 18,0 C 26,9 C 13,0 km/h (3 Bft) 98,54 %
02.07.2016 15:00 26,6 C 58 % 1010,6 hPa 0,0 l/m 7,5 km/h (2 Bft) W-SW 0,53 h 0,559 mm 3,4 UV-I 484 W/m 17,6 C 26,3 C 14,7 km/h (3 Bft) 97,51 %
02.07.2016 16:00 24,6 C 66 % 1010,7 hPa 0,0 l/m 4,6 km/h (1 Bft) W-NW 0,03 h 0,381 mm 1,5 UV-I 189 W/m 17,9 C 24,5 C 9,5 km/h (2 Bft) 98,57 %
02.07.2016 17:00 23,5 C 65 % 1011,1 hPa 0,0 l/m 6,0 km/h (2 Bft) W-SW 0,00 h 0,152 mm 0,0 UV-I 33 W/m 16,5 C 23,2 C 11,4 km/h (2 Bft) 97,52 %
02.07.2016 18:00 21,6 C 75 % 1012,6 hPa 0,6 l/m 8,0 km/h (2 Bft) W-SW 0,00 h 0,051 mm 0,0 UV-I 11 W/m 17,0 C 21,1 C 14,6 km/h (3 Bft) 98,86 %
02.07.2016 19:00 18,9 C 91 % 1013,9 hPa 2,8 l/m 11,3 km/h (2 Bft) W-SW 0,00 h 0,051 mm 0,0 UV-I 15 W/m 17,4 C 17,1 C 17,8 km/h (3 Bft) 97,69 %
02.07.2016 20:00 18,1 C 92 % 1014,7 hPa 0,6 l/m 7,2 km/h (2 Bft) W-SW 0,00 h 0,025 mm 0,0 UV-I 16 W/m 16,8 C 17,5 C 12,7 km/h (3 Bft) 98,54 %
02.07.2016 21:00 17,5 C 94 % 1015,6 hPa 1,2 l/m 4,9 km/h (1 Bft) W-SW 0,00 h 0,026 mm 0,0 UV-I 0 W/m 16,5 C 17,4 C 8,0 km/h (2 Bft) 97,75 %
02.07.2016 22:00 16,8 C 93 % 1016,5 hPa 1,2 l/m 9,2 km/h (2 Bft) W-SW 0,00 h 0,000 mm 0,0 UV-I 0 W/m 15,7 C 15,4 C 15,8 km/h (3 Bft) 98,61 %
02.07.2016 23:00 15,3 C 93 % 1017,4 hPa 0,2 l/m 12,6 km/h (3 Bft) W-SW 0,00 h 0,000 mm 0,0 UV-I 0 W/m 14,2 C 12,4 C 18,8 km/h (3 Bft) 98,01 %
03.07.2016 00:00 14,9 C 94 % 1018,1 hPa 0,4 l/m 8,7 km/h (2 Bft) W-SW 0,00 h 0,000 mm 0,0 UV-I 0 W/m 13,8 C 13,6 C 14,9 km/h (3 Bft) 98,99 %
03.07.2016 01:00 14,1 C 94 % 1018,7 hPa 2,8 l/m 7,5 km/h (2 Bft) W 0,00 h 0,000 mm 0,0 UV-I 0 W/m 13,2 C 13,2 C 12,8 km/h (3 Bft) 98,03 %
03.07.2016 02:00 13,4 C 94 % 1019,0 hPa 1,8 l/m 11,5 km/h (2 Bft) SW 0,00 h 0,000 mm 0,0 UV-I 0 W/m 12,4 C 10,7 C 18,4 km/h (3 Bft) 99,35 %
03.07.2016 03:00 13,0 C 94 % 1019,2 hPa 0,2 l/m 11,2 km/h (2 Bft) SW 0,00 h 0,000 mm 0,0 UV-I 0 W/m 12,1 C 10,4 C 18,0 km/h (3 Bft) 97,52 %
03.07.2016 04:00 12,8 C 94 % 1019,5 hPa 0,6 l/m 10,0 km/h (2 Bft) SW 0,00 h 0,000 mm 0,0 UV-I 0 W/m 11,8 C 10,7 C 16,2 km/h (3 Bft) 99,30 %
03.07.2016 05:00 12,7 C 94 % 1019,5 hPa 0,0 l/m 9,1 km/h (2 Bft) SW 0,00 h 0,000 mm 0,0 UV-I 8 W/m 11,8 C 11,2 C 15,2 km/h (3 Bft) 97,63 %
03.07.2016 06:00 13,1 C 94 % 1019,6 hPa 0,0 l/m 7,7 km/h (2 Bft) S-SW 0,00 h 0,000 mm 0,0 UV-I 50 W/m 12,1 C 12,3 C 12,3 km/h (3 Bft) 98,48 %
03.07.2016 07:00 13,8 C 93 % 1020,0 hPa 0,0 l/m 7,3 km/h (2 Bft) SW 0,00 h 0,025 mm 0,6 UV-I 120 W/m 12,6 C 13,1 C 12,0 km/h (2 Bft) 97,21 %
03.07.2016 08:00 15,4 C 86 % 1020,2 hPa 0,0 l/m 9,8 km/h (2 Bft) SW 0,83 h 0,077 mm 1,3 UV-I 330 W/m 13,1 C 13,7 C 16,0 km/h (3 Bft) 98,71 %
03.07.2016 09:00 16,2 C 83 % 1020,2 hPa 0,0 l/m 7,8 km/h (2 Bft) W-SW 0,63 h 0,177 mm 2,1 UV-I 367 W/m 13,2 C 15,3 C 13,5 km/h (3 Bft) 97,73 %
03.07.2016 10:00 16,9 C 79 % 1020,4 hPa 0,0 l/m 7,2 km/h (2 Bft) W-SW 0,37 h 0,229 mm 2,7 UV-I 371 W/m 13,2 C 16,2 C 12,5 km/h (3 Bft) 99,21 %
03.07.2016 11:00 17,4 C 74 % 1020,3 hPa 0,0 l/m 6,8 km/h (2 Bft) W-SW 0,30 h 0,229 mm 2,9 UV-I 374 W/m 12,7 C 16,9 C 12,2 km/h (2 Bft) 97,80 %
03.07.2016 12:00 17,9 C 70 % 1020,2 hPa 0,0 l/m 7,6 km/h (2 Bft) W-SW 0,00 h 0,228 mm 2,8 UV-I 311 W/m 12,4 C 17,2 C 12,7 km/h (3 Bft) 98,78 %
03.07.2016 13:00 17,8 C 69 % 1019,9 hPa 0,0 l/m 6,5 km/h (2 Bft) W-SW 0,00 h 0,203 mm 2,0 UV-I 226 W/m 12,1 C 17,2 C 11,9 km/h (2 Bft) 97,39 %
03.07.2016 14:00 18,8 C 66 % 1019,5 hPa 0,0 l/m 5,2 km/h (1 Bft) SW 0,67 h 0,153 mm 4,3 UV-I 490 W/m 12,3 C 18,5 C 9,9 km/h (2 Bft) 98,71 %
03.07.2016 15:00 19,7 C 59 % 1019,2 hPa 0,0 l/m 8,2 km/h (2 Bft) S-SW 0,63 h 0,305 mm 4,4 UV-I 568 W/m 11,5 C 18,8 C 13,8 km/h (3 Bft) 97,44 %
03.07.2016 16:00 20,4 C 58 % 1018,9 hPa 0,0 l/m 7,6 km/h (2 Bft) S-SW 0,77 h 0,381 mm 3,4 UV-I 572 W/m 11,9 C 19,7 C 13,7 km/h (3 Bft) 99,49 %
03.07.2016 17:00 20,0 C 60 % 1018,7 hPa 0,0 l/m 2,8 km/h (1 Bft) NW 0,27 h 0,381 mm 1,3 UV-I 249 W/m 11,9 C 20,0 C 5,8 km/h (2 Bft) 97,50 %
03.07.2016 18:00 19,6 C 63 % 1018,8 hPa 0,0 l/m 2,1 km/h (1 Bft) N-NW 0,47 h 0,177 mm 0,7 UV-I 228 W/m 12,4 C 19,6 C 5,1 km/h (1 Bft) 98,71 %
03.07.2016 19:00 19,3 C 60 % 1019,2 hPa 0,0 l/m 3,5 km/h (1 Bft) W-NW 0,13 h 0,153 mm 0,5 UV-I 79 W/m 11,3 C 19,2 C 7,7 km/h (2 Bft) 97,81 %
03.07.2016 20:00 18,2 C 64 % 1019,6 hPa 0,0 l/m 1,9 km/h (1 Bft) W 0,07 h 0,076 mm 0,0 UV-I 17 W/m 11,2 C 18,2 C 4,4 km/h (1 Bft) 98,90 %
03.07.2016 21:00 17,4 C 69 % 1020,4 hPa 0,0 l/m 1,5 km/h (1 Bft) W-NW 0,00 h 0,025 mm 0,0 UV-I 4 W/m 11,7 C 17,4 C 4,6 km/h (1 Bft) 97,82 %
03.07.2016 22:00 17,0 C 69 % 1021,0 hPa 0,0 l/m 3,1 km/h (1 Bft) W-SW 0,00 h 0,026 mm 0,0 UV-I 0 W/m 11,3 C 17,0 C 5,3 km/h (1 Bft) 99,06 %
03.07.2016 23:00 16,4 C 74 % 1021,4 hPa 0,0 l/m 4,5 km/h (1 Bft) SW 0,00 h 0,025 mm 0,0 UV-I 0 W/m 11,6 C 16,4 C 6,9 km/h (2 Bft) 97,32 %
Min-Datum _ 29.06.16 28.06.16 02.07.16 - 28.06.16 - - - - - 03.07.16 03.07.16 28.06.16 02.07.16
_ Min-Zeit 04:46 17:30 14:42 - 20:08 - - - - - 15:32 03:44 20:08 17:23
Minimum _ 12,2 C 43 % 1010,2 hPa - 0,0 km/h (0 Bft) - - - - - 10,2 C 8,4 C 0,0 km/h (0 Bft) 84,62 %
Max-Datum _ 01.07.16 27.06.16 03.07.16 27.06.16 30.06.16 - 01.07.16 02.07.16 29.06.16 29.06.16 02.07.16 01.07.16 30.06.16 27.06.16
_ Max-Zeit 15:54 07:38 23:50 05:08 10:24 - 13:25 14:00 13:18 14:22 12:30 15:40 11:48 00:00
Maximum _ 28,1 C 97 % 1021,6 hPa 8,8 l/m 19,2 km/h
W-SW (3 Bft)
- 0,08 h 0,609 mm 7,8 UV-I 1108 W/m 20,8 C 27,8 C 33,8 km/h
W (5 Bft)
100,00 %
Durchschnitt _ 19,3 C 77 % 1015,7 hPa #31,0 l/m 5,2 km/h (1 Bft) W-SW #54:19 h #27,152 mm 3,0 UV-I 339 W/m 14,8 C 18,9 C 9,1 km/h (2 Bft) 98,32 %